sensor_id;sensor_type;location;lat;lon;timestamp;P1;durP1;ratioP1;P2;durP2;ratioP2
19828;SDS011;10075;50.924;4.396;2023-01-19T00:00:46;25.17;;;18.60;;
19828;SDS011;10075;50.924;4.396;2023-01-19T00:03:16;25.27;;;17.87;;
19828;SDS011;10075;50.924;4.396;2023-01-19T00:05:43;27.33;;;18.73;;
19828;SDS011;10075;50.924;4.396;2023-01-19T00:08:10;25.97;;;17.87;;
19828;SDS011;10075;50.924;4.396;2023-01-19T00:10:41;26.17;;;17.10;;
19828;SDS011;10075;50.924;4.396;2023-01-19T00:13:09;22.30;;;16.43;;
19828;SDS011;10075;50.924;4.396;2023-01-19T00:15:36;27.83;;;18.13;;
19828;SDS011;10075;50.924;4.396;2023-01-19T00:18:03;24.17;;;16.77;;
19828;SDS011;10075;50.924;4.396;2023-01-19T00:20:32;26.80;;;16.17;;
19828;SDS011;10075;50.924;4.396;2023-01-19T00:23:00;25.60;;;16.23;;
19828;SDS011;10075;50.924;4.396;2023-01-19T00:25:27;21.50;;;16.73;;
19828;SDS011;10075;50.924;4.396;2023-01-19T00:27:54;24.57;;;14.20;;
19828;SDS011;10075;50.924;4.396;2023-01-19T00:30:21;23.37;;;14.40;;
19828;SDS011;10075;50.924;4.396;2023-01-19T00:32:48;24.43;;;15.63;;
19828;SDS011;10075;50.924;4.396;2023-01-19T00:35:15;19.43;;;14.30;;
19828;SDS011;10075;50.924;4.396;2023-01-19T00:37:44;23.30;;;14.20;;
19828;SDS011;10075;50.924;4.396;2023-01-19T00:40:12;20.67;;;13.53;;
19828;SDS011;10075;50.924;4.396;2023-01-19T00:42:39;20.67;;;14.27;;
19828;SDS011;10075;50.924;4.396;2023-01-19T00:45:06;25.87;;;15.03;;
19828;SDS011;10075;50.924;4.396;2023-01-19T00:47:34;21.30;;;14.30;;
19828;SDS011;10075;50.924;4.396;2023-01-19T00:50:01;22.27;;;15.43;;
19828;SDS011;10075;50.924;4.396;2023-01-19T00:52:28;20.63;;;15.50;;
19828;SDS011;10075;50.924;4.396;2023-01-19T00:54:56;20.43;;;14.20;;
19828;SDS011;10075;50.924;4.396;2023-01-19T00:57:23;23.87;;;15.07;;
19828;SDS011;10075;50.924;4.396;2023-01-19T00:59:51;25.53;;;15.90;;
19828;SDS011;10075;50.924;4.396;2023-01-19T01:02:18;23.73;;;15.33;;
19828;SDS011;10075;50.924;4.396;2023-01-19T01:04:45;24.03;;;14.73;;
19828;SDS011;10075;50.924;4.396;2023-01-19T01:07:12;28.83;;;15.73;;
19828;SDS011;10075;50.924;4.396;2023-01-19T01:09:39;29.60;;;17.27;;
19828;SDS011;10075;50.924;4.396;2023-01-19T01:12:07;24.93;;;16.03;;
19828;SDS011;10075;50.924;4.396;2023-01-19T01:14:34;27.07;;;16.17;;
19828;SDS011;10075;50.924;4.396;2023-01-19T01:17:01;24.10;;;16.80;;
19828;SDS011;10075;50.924;4.396;2023-01-19T01:19:28;22.40;;;16.60;;
19828;SDS011;10075;50.924;4.396;2023-01-19T01:21:55;27.63;;;15.87;;
19828;SDS011;10075;50.924;4.396;2023-01-19T01:24:22;28.53;;;17.43;;
19828;SDS011;10075;50.924;4.396;2023-01-19T01:26:49;27.90;;;16.43;;
19828;SDS011;10075;50.924;4.396;2023-01-19T01:29:17;25.50;;;17.03;;
19828;SDS011;10075;50.924;4.396;2023-01-19T01:31:44;27.60;;;15.97;;
19828;SDS011;10075;50.924;4.396;2023-01-19T01:34:11;31.00;;;18.47;;
19828;SDS011;10075;50.924;4.396;2023-01-19T01:36:38;27.47;;;17.43;;
19828;SDS011;10075;50.924;4.396;2023-01-19T01:39:05;27.17;;;15.93;;
19828;SDS011;10075;50.924;4.396;2023-01-19T01:41:33;27.10;;;14.23;;
19828;SDS011;10075;50.924;4.396;2023-01-19T01:44:00;24.97;;;17.50;;
19828;SDS011;10075;50.924;4.396;2023-01-19T01:46:31;31.73;;;18.13;;
19828;SDS011;10075;50.924;4.396;2023-01-19T01:49:01;25.47;;;17.07;;
19828;SDS011;10075;50.924;4.396;2023-01-19T01:51:31;27.57;;;17.53;;
19828;SDS011;10075;50.924;4.396;2023-01-19T01:54:06;25.80;;;17.00;;
19828;SDS011;10075;50.924;4.396;2023-01-19T01:56:38;24.90;;;16.37;;
19828;SDS011;10075;50.924;4.396;2023-01-19T01:59:07;28.30;;;17.30;;
19828;SDS011;10075;50.924;4.396;2023-01-19T02:01:38;29.03;;;17.80;;
19828;SDS011;10075;50.924;4.396;2023-01-19T02:04:23;27.87;;;18.23;;
19828;SDS011;10075;50.924;4.396;2023-01-19T02:06:50;27.13;;;15.73;;
19828;SDS011;10075;50.924;4.396;2023-01-19T02:09:35;27.97;;;18.07;;
19828;SDS011;10075;50.924;4.396;2023-01-19T02:12:20;24.73;;;16.03;;
19828;SDS011;10075;50.924;4.396;2023-01-19T02:15:12;27.53;;;15.60;;
19828;SDS011;10075;50.924;4.396;2023-01-19T02:17:42;23.97;;;16.67;;
19828;SDS011;10075;50.924;4.396;2023-01-19T02:20:09;25.07;;;14.87;;
19828;SDS011;10075;50.924;4.396;2023-01-19T02:22:39;24.10;;;15.10;;
19828;SDS011;10075;50.924;4.396;2023-01-19T02:25:14;21.80;;;14.33;;
19828;SDS011;10075;50.924;4.396;2023-01-19T02:27:43;24.03;;;14.23;;
19828;SDS011;10075;50.924;4.396;2023-01-19T02:30:11;22.63;;;14.03;;
19828;SDS011;10075;50.924;4.396;2023-01-19T02:32:40;28.90;;;15.17;;
19828;SDS011;10075;50.924;4.396;2023-01-19T02:35:08;25.53;;;14.77;;
19828;SDS011;10075;50.924;4.396;2023-01-19T02:37:36;23.17;;;14.90;;
19828;SDS011;10075;50.924;4.396;2023-01-19T02:40:06;25.23;;;14.10;;
19828;SDS011;10075;50.924;4.396;2023-01-19T02:42:38;20.37;;;13.93;;
19828;SDS011;10075;50.924;4.396;2023-01-19T02:45:10;21.43;;;14.20;;
19828;SDS011;10075;50.924;4.396;2023-01-19T02:47:39;26.77;;;14.53;;
19828;SDS011;10075;50.924;4.396;2023-01-19T02:53:10;23.37;;;14.93;;
19828;SDS011;10075;50.924;4.396;2023-01-19T02:56:00;24.03;;;16.33;;
19828;SDS011;10075;50.924;4.396;2023-01-19T02:58:38;28.27;;;16.40;;
19828;SDS011;10075;50.924;4.396;2023-01-19T03:01:11;26.27;;;16.47;;
19828;SDS011;10075;50.924;4.396;2023-01-19T03:03:45;25.00;;;15.67;;
19828;SDS011;10075;50.924;4.396;2023-01-19T03:06:23;24.33;;;15.03;;
19828;SDS011;10075;50.924;4.396;2023-01-19T03:08:59;25.10;;;14.40;;
19828;SDS011;10075;50.924;4.396;2023-01-19T03:11:31;25.63;;;14.77;;
19828;SDS011;10075;50.924;4.396;2023-01-19T03:14:06;21.97;;;13.50;;
19828;SDS011;10075;50.924;4.396;2023-01-19T03:16:38;23.70;;;15.63;;
19828;SDS011;10075;50.924;4.396;2023-01-19T03:19:09;25.63;;;14.37;;
19828;SDS011;10075;50.924;4.396;2023-01-19T03:21:41;21.03;;;13.20;;
19828;SDS011;10075;50.924;4.396;2023-01-19T03:24:12;23.00;;;13.40;;
19828;SDS011;10075;50.924;4.396;2023-01-19T03:26:42;20.83;;;12.07;;
19828;SDS011;10075;50.924;4.396;2023-01-19T03:29:14;19.93;;;12.27;;
19828;SDS011;10075;50.924;4.396;2023-01-19T03:31:43;18.87;;;11.83;;
19828;SDS011;10075;50.924;4.396;2023-01-19T03:34:12;21.60;;;12.27;;
19828;SDS011;10075;50.924;4.396;2023-01-19T03:36:42;19.93;;;11.67;;
19828;SDS011;10075;50.924;4.396;2023-01-19T03:39:12;26.23;;;15.07;;
19828;SDS011;10075;50.924;4.396;2023-01-19T03:41:43;27.07;;;15.13;;
19828;SDS011;10075;50.924;4.396;2023-01-19T03:44:15;29.07;;;15.47;;
19828;SDS011;10075;50.924;4.396;2023-01-19T03:46:42;27.43;;;16.70;;
19828;SDS011;10075;50.924;4.396;2023-01-19T03:49:11;29.60;;;17.83;;
19828;SDS011;10075;50.924;4.396;2023-01-19T03:51:39;33.73;;;18.03;;
19828;SDS011;10075;50.924;4.396;2023-01-19T03:54:06;29.57;;;19.43;;
19828;SDS011;10075;50.924;4.396;2023-01-19T03:56:35;33.10;;;19.10;;
19828;SDS011;10075;50.924;4.396;2023-01-19T03:59:03;35.37;;;18.27;;
19828;SDS011;10075;50.924;4.396;2023-01-19T04:01:32;33.40;;;19.30;;
19828;SDS011;10075;50.924;4.396;2023-01-19T04:03:59;34.13;;;18.57;;
19828;SDS011;10075;50.924;4.396;2023-01-19T04:06:26;36.10;;;19.17;;
19828;SDS011;10075;50.924;4.396;2023-01-19T04:08:53;29.23;;;18.27;;
19828;SDS011;10075;50.924;4.396;2023-01-19T04:11:20;31.73;;;18.70;;
19828;SDS011;10075;50.924;4.396;2023-01-19T04:13:47;29.47;;;17.93;;
19828;SDS011;10075;50.924;4.396;2023-01-19T04:16:14;28.13;;;17.47;;
19828;SDS011;10075;50.924;4.396;2023-01-19T04:18:45;31.97;;;19.77;;
19828;SDS011;10075;50.924;4.396;2023-01-19T04:21:12;36.53;;;19.20;;
19828;SDS011;10075;50.924;4.396;2023-01-19T04:23:39;32.00;;;20.20;;
19828;SDS011;10075;50.924;4.396;2023-01-19T04:26:08;40.37;;;21.30;;
19828;SDS011;10075;50.924;4.396;2023-01-19T04:28:35;39.03;;;22.33;;
19828;SDS011;10075;50.924;4.396;2023-01-19T04:31:02;36.53;;;21.30;;
19828;SDS011;10075;50.924;4.396;2023-01-19T04:33:30;39.87;;;21.50;;
19828;SDS011;10075;50.924;4.396;2023-01-19T04:35:59;40.23;;;21.67;;
19828;SDS011;10075;50.924;4.396;2023-01-19T04:38:28;32.67;;;19.47;;
19828;SDS011;10075;50.924;4.396;2023-01-19T04:40:55;34.87;;;21.73;;
19828;SDS011;10075;50.924;4.396;2023-01-19T04:43:22;39.50;;;21.50;;
19828;SDS011;10075;50.924;4.396;2023-01-19T04:45:49;41.03;;;20.93;;
19828;SDS011;10075;50.924;4.396;2023-01-19T04:48:16;29.57;;;17.40;;
19828;SDS011;10075;50.924;4.396;2023-01-19T04:50:44;35.87;;;20.43;;
19828;SDS011;10075;50.924;4.396;2023-01-19T04:53:12;32.50;;;19.77;;
19828;SDS011;10075;50.924;4.396;2023-01-19T04:55:40;37.90;;;19.87;;
19828;SDS011;10075;50.924;4.396;2023-01-19T04:58:07;36.37;;;20.80;;
19828;SDS011;10075;50.924;4.396;2023-01-19T05:00:34;45.60;;;23.37;;
19828;SDS011;10075;50.924;4.396;2023-01-19T05:03:01;43.23;;;21.13;;
19828;SDS011;10075;50.924;4.396;2023-01-19T05:05:29;42.20;;;21.23;;
19828;SDS011;10075;50.924;4.396;2023-01-19T05:07:57;44.30;;;22.23;;
19828;SDS011;10075;50.924;4.396;2023-01-19T05:10:26;44.40;;;26.07;;
19828;SDS011;10075;50.924;4.396;2023-01-19T05:12:53;47.73;;;26.63;;
19828;SDS011;10075;50.924;4.396;2023-01-19T05:15:20;49.40;;;27.70;;
19828;SDS011;10075;50.924;4.396;2023-01-19T05:17:47;51.10;;;27.67;;
19828;SDS011;10075;50.924;4.396;2023-01-19T05:20:14;58.70;;;28.17;;
19828;SDS011;10075;50.924;4.396;2023-01-19T05:22:42;48.97;;;26.17;;
19828;SDS011;10075;50.924;4.396;2023-01-19T05:25:13;54.83;;;29.83;;
19828;SDS011;10075;50.924;4.396;2023-01-19T05:27:41;56.40;;;28.30;;
19828;SDS011;10075;50.924;4.396;2023-01-19T05:30:09;53.03;;;30.57;;
19828;SDS011;10075;50.924;4.396;2023-01-19T05:32:37;54.10;;;27.77;;
19828;SDS011;10075;50.924;4.396;2023-01-19T05:35:04;50.57;;;28.73;;
19828;SDS011;10075;50.924;4.396;2023-01-19T05:37:32;54.67;;;26.13;;
19828;SDS011;10075;50.924;4.396;2023-01-19T05:39:59;53.17;;;28.33;;
19828;SDS011;10075;50.924;4.396;2023-01-19T05:42:26;56.87;;;28.33;;
19828;SDS011;10075;50.924;4.396;2023-01-19T05:44:54;53.53;;;28.03;;
19828;SDS011;10075;50.924;4.396;2023-01-19T05:47:23;50.23;;;27.33;;
19828;SDS011;10075;50.924;4.396;2023-01-19T05:49:50;60.43;;;29.70;;
19828;SDS011;10075;50.924;4.396;2023-01-19T05:52:17;46.27;;;27.17;;
19828;SDS011;10075;50.924;4.396;2023-01-19T05:54:44;51.07;;;27.20;;
19828;SDS011;10075;50.924;4.396;2023-01-19T05:57:12;52.30;;;29.80;;
19828;SDS011;10075;50.924;4.396;2023-01-19T05:59:39;56.37;;;28.97;;
19828;SDS011;10075;50.924;4.396;2023-01-19T06:02:07;50.23;;;25.00;;
19828;SDS011;10075;50.924;4.396;2023-01-19T06:04:34;49.87;;;26.93;;
19828;SDS011;10075;50.924;4.396;2023-01-19T06:07:01;54.57;;;29.43;;
19828;SDS011;10075;50.924;4.396;2023-01-19T06:09:30;61.53;;;29.57;;
19828;SDS011;10075;50.924;4.396;2023-01-19T06:11:57;55.47;;;26.70;;
19828;SDS011;10075;50.924;4.396;2023-01-19T06:14:24;51.07;;;27.77;;
19828;SDS011;10075;50.924;4.396;2023-01-19T06:16:51;53.50;;;27.23;;
19828;SDS011;10075;50.924;4.396;2023-01-19T06:19:20;55.27;;;27.17;;
19828;SDS011;10075;50.924;4.396;2023-01-19T06:21:47;57.10;;;28.13;;
19828;SDS011;10075;50.924;4.396;2023-01-19T06:24:16;49.73;;;25.93;;
19828;SDS011;10075;50.924;4.396;2023-01-19T06:26:43;54.60;;;28.10;;
19828;SDS011;10075;50.924;4.396;2023-01-19T06:29:10;56.63;;;25.10;;
19828;SDS011;10075;50.924;4.396;2023-01-19T06:31:38;54.17;;;27.43;;
19828;SDS011;10075;50.924;4.396;2023-01-19T06:34:05;57.23;;;29.97;;
19828;SDS011;10075;50.924;4.396;2023-01-19T06:36:34;57.37;;;29.27;;
19828;SDS011;10075;50.924;4.396;2023-01-19T06:39:01;61.47;;;29.83;;
19828;SDS011;10075;50.924;4.396;2023-01-19T06:41:30;56.90;;;29.47;;
19828;SDS011;10075;50.924;4.396;2023-01-19T06:43:57;54.57;;;29.27;;
19828;SDS011;10075;50.924;4.396;2023-01-19T06:46:24;49.93;;;24.83;;
19828;SDS011;10075;50.924;4.396;2023-01-19T06:48:51;51.63;;;24.13;;
19828;SDS011;10075;50.924;4.396;2023-01-19T06:51:18;49.20;;;26.67;;
19828;SDS011;10075;50.924;4.396;2023-01-19T06:53:46;51.17;;;26.80;;
19828;SDS011;10075;50.924;4.396;2023-01-19T06:56:13;55.63;;;26.10;;
19828;SDS011;10075;50.924;4.396;2023-01-19T06:58:40;58.30;;;27.53;;
19828;SDS011;10075;50.924;4.396;2023-01-19T07:01:08;46.63;;;25.60;;
19828;SDS011;10075;50.924;4.396;2023-01-19T07:03:35;52.23;;;26.97;;
19828;SDS011;10075;50.924;4.396;2023-01-19T07:06:03;47.27;;;26.20;;
19828;SDS011;10075;50.924;4.396;2023-01-19T07:08:31;56.37;;;27.10;;
19828;SDS011;10075;50.924;4.396;2023-01-19T07:11:00;50.07;;;25.00;;
19828;SDS011;10075;50.924;4.396;2023-01-19T07:13:28;54.27;;;27.50;;
19828;SDS011;10075;50.924;4.396;2023-01-19T07:15:55;49.80;;;26.23;;
19828;SDS011;10075;50.924;4.396;2023-01-19T07:18:22;50.90;;;27.67;;
19828;SDS011;10075;50.924;4.396;2023-01-19T07:20:49;51.03;;;25.40;;
19828;SDS011;10075;50.924;4.396;2023-01-19T07:23:16;55.63;;;26.40;;
19828;SDS011;10075;50.924;4.396;2023-01-19T07:25:44;63.23;;;29.43;;
19828;SDS011;10075;50.924;4.396;2023-01-19T07:28:12;55.73;;;27.90;;
19828;SDS011;10075;50.924;4.396;2023-01-19T07:30:40;45.27;;;24.50;;
19828;SDS011;10075;50.924;4.396;2023-01-19T07:33:08;49.73;;;25.63;;
19828;SDS011;10075;50.924;4.396;2023-01-19T07:35:35;53.70;;;27.37;;
19828;SDS011;10075;50.924;4.396;2023-01-19T07:38:02;52.67;;;25.07;;
19828;SDS011;10075;50.924;4.396;2023-01-19T07:40:29;55.77;;;29.03;;
19828;SDS011;10075;50.924;4.396;2023-01-19T07:42:57;49.67;;;27.07;;
19828;SDS011;10075;50.924;4.396;2023-01-19T07:45:26;52.27;;;26.23;;
19828;SDS011;10075;50.924;4.396;2023-01-19T07:47:53;51.50;;;28.30;;
19828;SDS011;10075;50.924;4.396;2023-01-19T07:50:20;47.93;;;24.67;;
19828;SDS011;10075;50.924;4.396;2023-01-19T07:52:49;54.70;;;29.13;;
19828;SDS011;10075;50.924;4.396;2023-01-19T07:55:17;62.00;;;29.57;;
19828;SDS011;10075;50.924;4.396;2023-01-19T07:57:46;51.30;;;26.30;;
19828;SDS011;10075;50.924;4.396;2023-01-19T08:00:15;51.97;;;25.23;;
19828;SDS011;10075;50.924;4.396;2023-01-19T08:02:46;44.33;;;24.60;;
19828;SDS011;10075;50.924;4.396;2023-01-19T08:05:14;43.03;;;22.77;;
19828;SDS011;10075;50.924;4.396;2023-01-19T08:07:41;44.30;;;23.00;;
19828;SDS011;10075;50.924;4.396;2023-01-19T08:10:09;41.23;;;23.87;;
19828;SDS011;10075;50.924;4.396;2023-01-19T08:12:36;45.43;;;24.43;;
19828;SDS011;10075;50.924;4.396;2023-01-19T08:15:04;44.40;;;22.80;;
19828;SDS011;10075;50.924;4.396;2023-01-19T08:17:32;45.27;;;23.43;;
19828;SDS011;10075;50.924;4.396;2023-01-19T08:20:01;46.50;;;24.13;;
19828;SDS011;10075;50.924;4.396;2023-01-19T08:22:28;47.90;;;23.13;;
19828;SDS011;10075;50.924;4.396;2023-01-19T08:24:55;49.93;;;22.93;;
19828;SDS011;10075;50.924;4.396;2023-01-19T08:27:22;44.80;;;23.17;;
19828;SDS011;10075;50.924;4.396;2023-01-19T08:29:49;48.63;;;26.87;;
19828;SDS011;10075;50.924;4.396;2023-01-19T08:32:16;52.17;;;25.53;;
19828;SDS011;10075;50.924;4.396;2023-01-19T08:34:43;52.13;;;25.13;;
19828;SDS011;10075;50.924;4.396;2023-01-19T08:37:11;48.07;;;26.50;;
19828;SDS011;10075;50.924;4.396;2023-01-19T08:39:38;50.33;;;27.03;;
19828;SDS011;10075;50.924;4.396;2023-01-19T08:42:05;48.07;;;24.03;;
19828;SDS011;10075;50.924;4.396;2023-01-19T08:44:32;43.73;;;24.57;;
19828;SDS011;10075;50.924;4.396;2023-01-19T08:46:59;46.53;;;23.73;;
19828;SDS011;10075;50.924;4.396;2023-01-19T08:49:26;41.03;;;23.53;;
19828;SDS011;10075;50.924;4.396;2023-01-19T08:51:53;51.53;;;27.33;;
19828;SDS011;10075;50.924;4.396;2023-01-19T08:54:21;48.50;;;24.20;;
19828;SDS011;10075;50.924;4.396;2023-01-19T08:56:48;50.07;;;25.43;;
19828;SDS011;10075;50.924;4.396;2023-01-19T08:59:15;49.60;;;24.80;;
19828;SDS011;10075;50.924;4.396;2023-01-19T09:01:43;42.40;;;21.60;;
19828;SDS011;10075;50.924;4.396;2023-01-19T09:04:09;43.23;;;21.93;;
19828;SDS011;10075;50.924;4.396;2023-01-19T09:06:36;44.40;;;23.33;;
19828;SDS011;10075;50.924;4.396;2023-01-19T09:09:03;41.40;;;21.33;;
19828;SDS011;10075;50.924;4.396;2023-01-19T09:11:32;44.57;;;22.10;;
19828;SDS011;10075;50.924;4.396;2023-01-19T09:13:59;43.33;;;21.10;;
19828;SDS011;10075;50.924;4.396;2023-01-19T09:16:26;42.93;;;21.53;;
19828;SDS011;10075;50.924;4.396;2023-01-19T09:18:53;44.47;;;21.43;;
19828;SDS011;10075;50.924;4.396;2023-01-19T09:21:20;42.30;;;22.73;;
19828;SDS011;10075;50.924;4.396;2023-01-19T09:23:47;45.83;;;23.53;;
19828;SDS011;10075;50.924;4.396;2023-01-19T09:26:14;42.60;;;24.40;;
19828;SDS011;10075;50.924;4.396;2023-01-19T09:28:43;44.73;;;22.17;;
19828;SDS011;10075;50.924;4.396;2023-01-19T09:31:10;44.50;;;24.87;;
19828;SDS011;10075;50.924;4.396;2023-01-19T09:33:37;45.47;;;25.47;;
19828;SDS011;10075;50.924;4.396;2023-01-19T09:36:04;51.07;;;25.20;;
19828;SDS011;10075;50.924;4.396;2023-01-19T09:38:31;48.40;;;23.57;;
19828;SDS011;10075;50.924;4.396;2023-01-19T09:40:58;55.53;;;26.20;;
19828;SDS011;10075;50.924;4.396;2023-01-19T09:43:34;56.97;;;25.63;;
19828;SDS011;10075;50.924;4.396;2023-01-19T09:46:09;52.37;;;26.17;;
19828;SDS011;10075;50.924;4.396;2023-01-19T09:48:44;52.27;;;26.57;;
19828;SDS011;10075;50.924;4.396;2023-01-19T09:51:14;53.87;;;25.53;;
19828;SDS011;10075;50.924;4.396;2023-01-19T09:56:28;46.80;;;19.57;;
19828;SDS011;10075;50.924;4.396;2023-01-19T09:58:56;51.47;;;25.00;;
19828;SDS011;10075;50.924;4.396;2023-01-19T10:01:29;47.50;;;22.57;;
19828;SDS011;10075;50.924;4.396;2023-01-19T10:04:07;52.37;;;25.43;;
19828;SDS011;10075;50.924;4.396;2023-01-19T10:06:51;47.47;;;20.53;;
19828;SDS011;10075;50.924;4.396;2023-01-19T10:09:27;50.93;;;21.53;;
19828;SDS011;10075;50.924;4.396;2023-01-19T10:12:00;47.07;;;24.00;;
19828;SDS011;10075;50.924;4.396;2023-01-19T10:14:35;51.87;;;23.37;;
19828;SDS011;10075;50.924;4.396;2023-01-19T10:17:13;54.43;;;22.63;;
19828;SDS011;10075;50.924;4.396;2023-01-19T10:19:48;45.10;;;22.27;;
19828;SDS011;10075;50.924;4.396;2023-01-19T10:22:22;50.40;;;21.83;;
19828;SDS011;10075;50.924;4.396;2023-01-19T10:24:51;46.70;;;21.50;;
19828;SDS011;10075;50.924;4.396;2023-01-19T10:27:22;52.30;;;23.33;;
19828;SDS011;10075;50.924;4.396;2023-01-19T10:29:52;48.20;;;22.17;;
19828;SDS011;10075;50.924;4.396;2023-01-19T10:32:21;53.23;;;22.87;;
19828;SDS011;10075;50.924;4.396;2023-01-19T10:34:50;47.40;;;21.93;;
19828;SDS011;10075;50.924;4.396;2023-01-19T10:37:24;53.60;;;21.73;;
19828;SDS011;10075;50.924;4.396;2023-01-19T10:39:55;52.20;;;23.20;;
19828;SDS011;10075;50.924;4.396;2023-01-19T10:42:25;54.53;;;22.80;;
19828;SDS011;10075;50.924;4.396;2023-01-19T10:44:54;52.47;;;23.10;;
19828;SDS011;10075;50.924;4.396;2023-01-19T10:47:23;52.30;;;22.33;;
19828;SDS011;10075;50.924;4.396;2023-01-19T10:49:56;54.13;;;22.27;;
19828;SDS011;10075;50.924;4.396;2023-01-19T10:52:27;58.17;;;22.43;;
19828;SDS011;10075;50.924;4.396;2023-01-19T10:54:57;50.87;;;22.37;;
19828;SDS011;10075;50.924;4.396;2023-01-19T10:57:27;52.77;;;23.27;;
19828;SDS011;10075;50.924;4.396;2023-01-19T10:59:55;56.33;;;22.43;;
19828;SDS011;10075;50.924;4.396;2023-01-19T11:02:25;52.67;;;23.40;;
19828;SDS011;10075;50.924;4.396;2023-01-19T11:04:53;49.60;;;21.70;;
19828;SDS011;10075;50.924;4.396;2023-01-19T11:07:22;46.83;;;21.67;;
19828;SDS011;10075;50.924;4.396;2023-01-19T11:10:10;52.17;;;22.57;;
19828;SDS011;10075;50.924;4.396;2023-01-19T11:12:45;47.10;;;22.17;;
19828;SDS011;10075;50.924;4.396;2023-01-19T11:15:27;46.30;;;20.80;;
19828;SDS011;10075;50.924;4.396;2023-01-19T11:17:58;48.73;;;21.97;;
19828;SDS011;10075;50.924;4.396;2023-01-19T11:20:27;44.43;;;20.50;;
19828;SDS011;10075;50.924;4.396;2023-01-19T11:23:04;41.37;;;20.13;;
19828;SDS011;10075;50.924;4.396;2023-01-19T11:25:33;45.63;;;21.33;;
19828;SDS011;10075;50.924;4.396;2023-01-19T11:28:01;36.87;;;18.37;;
19828;SDS011;10075;50.924;4.396;2023-01-19T11:30:28;40.10;;;19.40;;
19828;SDS011;10075;50.924;4.396;2023-01-19T11:32:57;39.00;;;19.40;;
19828;SDS011;10075;50.924;4.396;2023-01-19T11:35:30;43.03;;;20.83;;
19828;SDS011;10075;50.924;4.396;2023-01-19T11:38:15;45.17;;;20.47;;
19828;SDS011;10075;50.924;4.396;2023-01-19T11:40:50;40.80;;;19.43;;
19828;SDS011;10075;50.924;4.396;2023-01-19T11:43:19;42.80;;;20.43;;
19828;SDS011;10075;50.924;4.396;2023-01-19T11:45:48;43.83;;;21.70;;
19828;SDS011;10075;50.924;4.396;2023-01-19T11:48:18;34.97;;;19.10;;
19828;SDS011;10075;50.924;4.396;2023-01-19T11:50:50;43.43;;;21.23;;
19828;SDS011;10075;50.924;4.396;2023-01-19T11:53:19;39.37;;;19.23;;
19828;SDS011;10075;50.924;4.396;2023-01-19T11:55:51;43.73;;;22.73;;
19828;SDS011;10075;50.924;4.396;2023-01-19T11:58:21;42.77;;;22.77;;
19828;SDS011;10075;50.924;4.396;2023-01-19T12:00:50;43.80;;;23.00;;
19828;SDS011;10075;50.924;4.396;2023-01-19T12:03:22;42.03;;;21.90;;
19828;SDS011;10075;50.924;4.396;2023-01-19T12:05:55;43.17;;;21.00;;
19828;SDS011;10075;50.924;4.396;2023-01-19T12:08:26;42.77;;;23.23;;
19828;SDS011;10075;50.924;4.396;2023-01-19T12:10:57;43.80;;;20.00;;
19828;SDS011;10075;50.924;4.396;2023-01-19T12:13:26;42.23;;;20.53;;
19828;SDS011;10075;50.924;4.396;2023-01-19T12:15:56;41.50;;;21.30;;
19828;SDS011;10075;50.924;4.396;2023-01-19T12:18:28;39.43;;;19.33;;
19828;SDS011;10075;50.924;4.396;2023-01-19T12:21:00;40.43;;;20.83;;
19828;SDS011;10075;50.924;4.396;2023-01-19T12:23:30;41.37;;;22.00;;
19828;SDS011;10075;50.924;4.396;2023-01-19T12:26:22;40.53;;;19.57;;
19828;SDS011;10075;50.924;4.396;2023-01-19T12:28:53;36.90;;;19.97;;
19828;SDS011;10075;50.924;4.396;2023-01-19T12:31:25;41.37;;;20.37;;
19828;SDS011;10075;50.924;4.396;2023-01-19T12:33:53;39.67;;;19.53;;
19828;SDS011;10075;50.924;4.396;2023-01-19T12:36:36;35.83;;;20.20;;
19828;SDS011;10075;50.924;4.396;2023-01-19T12:39:05;42.00;;;21.37;;
19828;SDS011;10075;50.924;4.396;2023-01-19T12:41:41;37.00;;;20.83;;
19828;SDS011;10075;50.924;4.396;2023-01-19T12:44:13;36.63;;;19.37;;
19828;SDS011;10075;50.924;4.396;2023-01-19T12:46:49;38.07;;;21.57;;
19828;SDS011;10075;50.924;4.396;2023-01-19T12:49:27;37.10;;;22.60;;
19828;SDS011;10075;50.924;4.396;2023-01-19T12:52:10;37.13;;;21.93;;
19828;SDS011;10075;50.924;4.396;2023-01-19T12:54:48;38.27;;;20.43;;
19828;SDS011;10075;50.924;4.396;2023-01-19T12:57:22;34.23;;;18.63;;
19828;SDS011;10075;50.924;4.396;2023-01-19T12:59:56;30.70;;;17.83;;
19828;SDS011;10075;50.924;4.396;2023-01-19T13:05:21;31.43;;;17.57;;
19828;SDS011;10075;50.924;4.396;2023-01-19T13:08:23;32.37;;;17.43;;
19828;SDS011;10075;50.924;4.396;2023-01-19T13:16:54;27.93;;;16.40;;
19828;SDS011;10075;50.924;4.396;2023-01-19T13:19:52;28.37;;;16.70;;
19828;SDS011;10075;50.924;4.396;2023-01-19T13:25:35;31.73;;;17.73;;
19828;SDS011;10075;50.924;4.396;2023-01-19T13:28:06;31.10;;;18.70;;
19828;SDS011;10075;50.924;4.396;2023-01-19T13:30:36;28.60;;;17.50;;
19828;SDS011;10075;50.924;4.396;2023-01-19T13:33:15;34.10;;;18.80;;
19828;SDS011;10075;50.924;4.396;2023-01-19T13:35:48;33.77;;;18.77;;
19828;SDS011;10075;50.924;4.396;2023-01-19T13:38:18;37.83;;;17.67;;
19828;SDS011;10075;50.924;4.396;2023-01-19T13:40:46;32.77;;;18.20;;
19828;SDS011;10075;50.924;4.396;2023-01-19T13:43:14;34.13;;;18.20;;
19828;SDS011;10075;50.924;4.396;2023-01-19T13:45:46;32.43;;;18.67;;
19828;SDS011;10075;50.924;4.396;2023-01-19T13:48:16;31.90;;;16.80;;
19828;SDS011;10075;50.924;4.396;2023-01-19T13:50:55;30.43;;;18.20;;
19828;SDS011;10075;50.924;4.396;2023-01-19T13:53:31;31.37;;;18.20;;
19828;SDS011;10075;50.924;4.396;2023-01-19T13:56:06;28.53;;;16.73;;
19828;SDS011;10075;50.924;4.396;2023-01-19T13:58:42;34.53;;;19.10;;
19828;SDS011;10075;50.924;4.396;2023-01-19T14:01:18;32.67;;;17.53;;
19828;SDS011;10075;50.924;4.396;2023-01-19T14:03:46;29.00;;;16.40;;
19828;SDS011;10075;50.924;4.396;2023-01-19T14:09:08;26.77;;;14.53;;
19828;SDS011;10075;50.924;4.396;2023-01-19T14:11:42;27.50;;;16.03;;
19828;SDS011;10075;50.924;4.396;2023-01-19T14:17:02;30.87;;;15.33;;
19828;SDS011;10075;50.924;4.396;2023-01-19T14:19:43;21.77;;;14.17;;
19828;SDS011;10075;50.924;4.396;2023-01-19T14:22:12;24.20;;;14.83;;
19828;SDS011;10075;50.924;4.396;2023-01-19T14:24:41;26.03;;;16.17;;
19828;SDS011;10075;50.924;4.396;2023-01-19T14:27:09;24.50;;;13.43;;
19828;SDS011;10075;50.924;4.396;2023-01-19T14:29:44;27.47;;;15.20;;
19828;SDS011;10075;50.924;4.396;2023-01-19T14:32:15;29.30;;;14.63;;
19828;SDS011;10075;50.924;4.396;2023-01-19T14:34:45;23.10;;;15.47;;
19828;SDS011;10075;50.924;4.396;2023-01-19T14:37:15;25.33;;;15.53;;
19828;SDS011;10075;50.924;4.396;2023-01-19T14:39:47;24.00;;;14.17;;
19828;SDS011;10075;50.924;4.396;2023-01-19T14:42:16;25.90;;;16.17;;
19828;SDS011;10075;50.924;4.396;2023-01-19T14:44:48;28.13;;;15.17;;
19828;SDS011;10075;50.924;4.396;2023-01-19T14:47:21;27.27;;;14.87;;
19828;SDS011;10075;50.924;4.396;2023-01-19T14:50:01;29.27;;;14.70;;
19828;SDS011;10075;50.924;4.396;2023-01-19T14:52:33;31.57;;;16.10;;
19828;SDS011;10075;50.924;4.396;2023-01-19T14:55:06;28.50;;;16.37;;
19828;SDS011;10075;50.924;4.396;2023-01-19T14:57:44;28.97;;;15.93;;
19828;SDS011;10075;50.924;4.396;2023-01-19T15:00:15;25.00;;;17.00;;